createdAt,value
2022-08-27T00:03:04.015Z,35.00
2022-08-27T00:08:06.532Z,28.42
2022-08-27T00:13:08.439Z,26.65
2022-08-27T00:18:09.835Z,30.98
2022-08-27T00:23:10.895Z,23.45
2022-08-27T00:28:12.350Z,31.00
2022-08-27T00:33:13.483Z,20.45
2022-08-27T00:38:14.857Z,25.90
2022-08-27T00:43:25.206Z,36.17
2022-08-27T00:48:29.692Z,38.42
2022-08-27T00:53:32.804Z,28.62
2022-08-27T00:58:46.005Z,32.55
2022-08-27T01:03:50.578Z,29.75
2022-08-27T01:08:56.468Z,28.85
2022-08-27T01:13:59.610Z,31.85
2022-08-27T01:19:06.885Z,33.15
2022-08-27T01:24:44.864Z,34.20
2022-08-27T01:29:47.139Z,35.47
2022-08-27T01:34:48.968Z,35.05
2022-08-27T01:39:50.265Z,31.62
2022-08-27T01:44:57.812Z,31.30
2022-08-27T01:50:00.206Z,31.73
2022-08-27T01:55:01.697Z,32.40
2022-08-27T02:00:08.825Z,32.85
2022-08-27T02:05:13.303Z,35.90
2022-08-27T02:10:22.994Z,32.80
2022-08-27T02:15:25.360Z,38.63
2022-08-27T02:20:29.316Z,39.35
2022-08-27T02:25:31.000Z,40.42
2022-08-27T02:30:33.624Z,34.27
2022-08-27T02:35:43.146Z,38.63
2022-08-27T02:40:44.075Z,34.67
2022-08-27T02:45:45.317Z,34.25
2022-08-27T02:50:46.354Z,41.53
2022-08-27T02:55:47.300Z,35.45
2022-08-27T03:00:48.173Z,40.05
2022-08-27T03:05:49.469Z,43.10
2022-08-27T03:10:51.101Z,40.30
2022-08-27T03:15:52.846Z,42.90
2022-08-27T03:20:55.597Z,46.00
2022-08-27T03:25:59.159Z,37.20
2022-08-27T03:31:03.342Z,48.50
2022-08-27T03:36:06.881Z,40.12
2022-08-27T03:41:07.674Z,42.67
2022-08-27T03:46:08.776Z,43.40
2022-08-27T03:51:12.679Z,50.12
2022-08-27T03:56:14.263Z,47.75
2022-08-27T04:01:16.389Z,45.35
2022-08-27T04:06:17.457Z,42.90
2022-08-27T04:11:18.402Z,41.08
2022-08-27T04:16:19.288Z,53.87
2022-08-27T04:21:22.356Z,45.63
2022-08-27T04:26:23.246Z,40.95
2022-08-27T04:31:25.434Z,46.15
2022-08-27T04:36:26.740Z,48.97
2022-08-27T04:41:28.601Z,46.50
2022-08-27T04:46:32.618Z,44.88
2022-08-27T04:51:34.264Z,43.92
2022-08-27T04:56:37.392Z,46.37
2022-08-27T05:01:42.291Z,53.50
2022-08-27T05:06:45.315Z,53.78
2022-08-27T05:11:47.159Z,54.60
2022-08-27T05:16:48.155Z,61.70
2022-08-27T05:21:51.032Z,58.25
2022-08-27T05:31:54.639Z,65.45
2022-08-27T05:36:55.688Z,65.43
2022-08-27T05:41:57.327Z,67.70
2022-08-27T05:46:58.257Z,61.25
2022-08-27T05:51:59.314Z,67.28
2022-08-27T05:57:00.190Z,58.58
2022-08-27T06:02:02.063Z,61.05
2022-08-27T06:07:03.699Z,55.38
2022-08-27T06:12:06.101Z,54.50
2022-08-27T06:17:07.033Z,52.65
2022-08-27T06:22:10.395Z,50.10
2022-08-27T06:27:15.457Z,47.50
2022-08-27T06:32:16.300Z,46.10
2022-08-27T06:37:17.400Z,45.67
2022-08-27T06:42:18.233Z,44.72
2022-08-27T06:47:22.053Z,43.47
2022-08-27T06:52:22.913Z,43.17
2022-08-27T06:57:23.995Z,44.70
2022-08-27T07:02:25.310Z,44.70
2022-08-27T07:07:27.237Z,39.97
2022-08-27T07:12:35.492Z,35.65
2022-08-27T07:17:36.415Z,35.35
2022-08-27T07:22:40.036Z,34.55
2022-08-27T07:27:41.099Z,29.73
2022-08-27T07:32:45.297Z,30.02
2022-08-27T07:37:46.225Z,33.08
2022-08-27T07:43:05.767Z,33.75
2022-08-27T07:48:06.676Z,30.98
2022-08-27T07:53:07.860Z,26.12
2022-08-27T07:58:11.540Z,30.95
2022-08-27T08:03:13.404Z,27.35
2022-08-27T08:08:15.106Z,25.75
2022-08-27T08:13:17.820Z,26.73
2022-08-27T08:18:18.846Z,22.83
2022-08-27T08:23:21.107Z,25.33
2022-08-27T08:28:21.907Z,24.45
2022-08-27T08:33:23.615Z,24.77
2022-08-27T08:38:25.373Z,19.77
2022-08-27T08:43:36.790Z,23.95
2022-08-27T08:48:43.047Z,20.70
2022-08-27T08:53:52.283Z,21.45
2022-08-27T08:59:02.694Z,19.75
2022-08-27T09:04:06.517Z,24.08
2022-08-27T09:09:53.816Z,23.60
2022-08-27T09:15:05.034Z,24.30
2022-08-27T09:20:07.853Z,25.33
2022-08-27T09:25:31.066Z,24.10
2022-08-27T09:30:42.434Z,25.37
2022-08-27T09:35:45.812Z,20.95
2022-08-27T09:40:51.184Z,20.37
2022-08-27T09:45:55.777Z,17.85
2022-08-27T09:51:01.790Z,20.62
2022-08-27T09:56:09.212Z,15.48
2022-08-27T10:01:22.253Z,15.45
2022-08-27T10:06:28.534Z,12.70
2022-08-27T10:11:35.299Z,16.70
2022-08-27T10:17:04.780Z,12.73
2022-08-27T10:22:33.301Z,11.70
2022-08-27T10:29:20.278Z,11.50
2022-08-27T10:34:49.672Z,12.25
2022-08-27T10:40:22.738Z,14.30
2022-08-27T10:45:46.534Z,15.50
2022-08-27T10:52:09.384Z,15.40
2022-08-27T10:57:58.879Z,14.83
2022-08-27T11:03:08.375Z,13.60
2022-08-27T11:08:40.476Z,11.27
2022-08-27T11:13:50.798Z,13.55
2022-08-27T11:18:57.525Z,13.50
2022-08-27T11:24:08.199Z,13.27
2022-08-27T11:29:26.367Z,12.73
2022-08-27T11:34:45.776Z,15.95
2022-08-27T11:41:44.615Z,15.70
2022-08-27T11:46:49.414Z,16.33
2022-08-27T11:52:03.713Z,20.23
2022-08-27T11:57:14.704Z,26.95
2022-08-27T12:02:26.249Z,31.73
2022-08-27T12:07:32.613Z,27.85
2022-08-27T12:15:16.671Z,26.52
2022-08-27T12:20:41.330Z,26.27
2022-08-27T12:25:42.564Z,24.80
2022-08-27T12:30:53.389Z,27.13
2022-08-27T12:35:57.231Z,31.98
2022-08-27T12:41:03.209Z,31.87
2022-08-27T12:46:13.144Z,30.83
2022-08-27T12:51:26.238Z,31.25
2022-08-27T12:58:15.687Z,29.12
2022-08-27T13:03:34.730Z,30.00
2022-08-27T13:08:35.663Z,27.75
2022-08-27T13:13:36.714Z,24.80
2022-08-27T13:18:39.096Z,28.62
2022-08-27T13:23:46.672Z,22.35
2022-08-27T13:28:48.942Z,28.12
2022-08-27T13:33:50.217Z,24.27
2022-08-27T13:38:51.604Z,26.48
2022-08-27T13:43:57.075Z,21.30
2022-08-27T13:49:00.342Z,20.27
2022-08-27T13:54:15.354Z,21.15
2022-08-27T13:59:26.525Z,22.65
2022-08-27T14:05:02.462Z,18.87
2022-08-27T14:10:45.521Z,16.15
2022-08-27T14:15:58.644Z,18.35
2022-08-27T14:21:01.594Z,15.50
2022-08-27T14:26:02.557Z,20.27
2022-08-27T14:31:03.803Z,22.10
2022-08-27T14:36:05.635Z,19.80
2022-08-27T14:41:06.874Z,16.07
2022-08-27T14:46:18.425Z,17.52
2022-08-27T14:51:25.683Z,13.68
2022-08-27T14:56:26.595Z,15.73
2022-08-27T15:01:28.722Z,17.77
2022-08-27T15:06:29.618Z,17.05
2022-08-27T15:11:33.544Z,16.75
2022-08-27T15:16:38.403Z,19.00
2022-08-27T15:21:40.576Z,19.10
2022-08-27T15:26:41.443Z,17.33
2022-08-27T15:31:42.757Z,15.82
2022-08-27T15:36:43.792Z,13.38
2022-08-27T15:42:05.925Z,16.75
2022-08-27T15:52:11.795Z,14.23
2022-08-27T15:57:19.699Z,12.95
2022-08-27T16:02:23.307Z,11.90
2022-08-27T16:07:24.156Z,12.98
2022-08-27T16:12:27.402Z,13.00
2022-08-27T16:17:28.720Z,9.70
2022-08-27T16:22:29.742Z,8.07
2022-08-27T16:27:30.645Z,8.10
2022-08-27T16:32:32.108Z,9.23
2022-08-27T16:37:32.943Z,11.32
2022-08-27T16:42:34.833Z,7.80
2022-08-27T16:50:32.635Z,12.70
2022-08-27T16:55:34.165Z,12.90
2022-08-27T17:00:38.150Z,10.65
2022-08-27T17:05:39.090Z,10.05
2022-08-27T17:10:45.812Z,11.35
2022-08-27T17:15:52.883Z,13.35
2022-08-27T17:20:56.269Z,13.00
2022-08-27T17:25:57.114Z,11.32
2022-08-27T17:31:01.007Z,13.00
2022-08-27T17:36:04.567Z,14.95
2022-08-27T17:41:34.080Z,15.77
2022-08-27T17:46:36.078Z,14.90
2022-08-27T17:51:36.981Z,17.50
2022-08-27T17:56:39.346Z,18.50
2022-08-27T18:01:40.600Z,14.50
2022-08-27T18:06:41.835Z,14.50
2022-08-27T18:11:44.584Z,16.87
2022-08-27T18:21:47.169Z,15.35
2022-08-27T18:26:48.724Z,14.63
2022-08-27T18:31:49.754Z,14.80
2022-08-27T18:36:50.658Z,15.65
2022-08-27T18:41:53.439Z,18.90
2022-08-27T18:46:54.288Z,15.43
2022-08-27T18:51:55.442Z,17.55
2022-08-27T18:56:56.266Z,20.52
2022-08-27T19:01:57.385Z,17.23
2022-08-27T19:06:58.552Z,24.67
2022-08-27T19:11:59.753Z,18.80
2022-08-27T19:17:01.993Z,21.35
2022-08-27T19:22:05.847Z,19.73
2022-08-27T19:27:08.649Z,19.92
2022-08-27T19:32:10.372Z,30.08
2022-08-27T19:37:21.319Z,26.58
2022-08-27T19:42:22.461Z,22.30
2022-08-27T19:47:25.253Z,19.70
2022-08-27T19:52:26.147Z,23.58
2022-08-27T19:57:27.087Z,27.02
2022-08-27T20:02:27.949Z,21.37
2022-08-27T20:07:28.971Z,23.23
2022-08-27T20:12:29.975Z,27.60
2022-08-27T20:17:32.291Z,28.17
2022-08-27T20:22:33.570Z,27.17
2022-08-27T20:27:34.938Z,27.25
2022-08-27T20:32:35.956Z,26.45
2022-08-27T20:37:41.920Z,26.80
2022-08-27T20:42:43.799Z,25.02
2022-08-27T20:47:47.095Z,22.17
2022-08-27T20:52:48.996Z,25.67
2022-08-27T20:58:08.852Z,31.23
2022-08-27T21:03:11.985Z,26.30
2022-08-27T21:08:14.554Z,28.33
2022-08-27T21:13:16.605Z,25.27
2022-08-27T21:18:18.834Z,27.83
2022-08-27T21:23:21.484Z,23.85
2022-08-27T21:28:22.682Z,24.50
2022-08-27T21:33:23.592Z,22.70
2022-08-27T21:38:24.586Z,29.67
2022-08-27T21:43:25.438Z,18.35
2022-08-27T21:48:26.551Z,17.83
2022-08-27T21:53:29.320Z,24.67
2022-08-27T21:58:30.191Z,25.98
2022-08-27T22:03:33.173Z,21.70
2022-08-27T22:08:34.238Z,28.25
2022-08-27T22:13:35.964Z,19.23
2022-08-27T22:18:36.861Z,21.42
2022-08-27T22:23:39.856Z,17.02
2022-08-27T22:28:46.467Z,22.25
2022-08-27T22:33:47.386Z,19.23
2022-08-27T22:38:48.374Z,20.00
2022-08-27T22:43:51.094Z,19.67
2022-08-27T22:48:57.681Z,17.37
2022-08-27T22:53:58.527Z,15.55
2022-08-27T22:58:59.811Z,20.20
2022-08-27T23:04:01.218Z,16.23
2022-08-27T23:09:02.583Z,16.05
2022-08-27T23:14:03.529Z,16.80
2022-08-27T23:19:04.393Z,12.00
2022-08-27T23:24:05.457Z,15.57
2022-08-27T23:29:06.942Z,16.05
2022-08-27T23:34:07.777Z,15.18
2022-08-27T23:39:09.974Z,13.65
2022-08-27T23:44:11.228Z,18.97
2022-08-27T23:49:12.506Z,16.83
2022-08-27T23:54:13.341Z,16.80
2022-08-27T23:59:14.201Z,14.87
